Terminal Aerodrome Forecast
Issued by NWS

Home | Current Version | Previous Version | Text Only | Print | Product List | Glossary On
Versions: 1 2 3 4 5 6 7 8 9 10 11 12 13 14 15 16 17 18 19 20 21 22 23 24 25 26 27 28 29 30 31 32 33
000
FTUS45 KGJT 281740
TAFASE
TAF
KASE 281740Z 2818/2918 35005KT P6SM VCSH FEW024 BKN050
      TEMPO 2818/2822 2SM -SHSN BR OVC025
     FM282200 32006KT P6SM VCSH SCT040 BKN060
      TEMPO 2822/2902 VRB15G24KT 1SM -SHSN BR OVC030
     FM290300 03005KT P6SM VCSH OVC045
     FM291200 11004KT P6SM BKN035=

USA.gov is the U.S. government's official web portal to all federal, state and local government web resources and services.